createdAt,value
2023-04-02T00:00:13.684Z,369.07
2023-04-02T00:01:13.652Z,364.14
2023-04-02T00:02:13.725Z,364.95
2023-04-02T00:03:13.657Z,357.76
2023-04-02T00:04:13.642Z,355.43
2023-04-02T00:05:13.606Z,358.55
2023-04-02T00:06:13.596Z,358.55
2023-04-02T00:07:13.809Z,359.73
2023-04-02T00:08:13.576Z,361.72
2023-04-02T00:09:13.574Z,360.13
2023-04-02T00:10:13.565Z,360.13
2023-04-02T00:11:13.545Z,358.55
2023-04-02T00:12:13.517Z,360.13
2023-04-02T00:13:13.515Z,363.73
2023-04-02T00:14:13.498Z,364.54
2023-04-02T00:15:13.493Z,370.75
2023-04-02T00:16:13.543Z,366.59
2023-04-02T00:17:13.511Z,368.65
2023-04-02T00:18:13.531Z,360.92
2023-04-02T00:19:13.446Z,361.72
2023-04-02T00:20:13.456Z,356.59
2023-04-02T00:21:13.417Z,360.92
2023-04-02T00:22:13.395Z,360.52
2023-04-02T00:23:13.411Z,360.92
2023-04-02T00:24:13.369Z,356.20
2023-04-02T00:25:13.418Z,356.20
2023-04-02T00:26:13.360Z,356.20
2023-04-02T00:27:13.338Z,364.54
2023-04-02T00:28:13.331Z,361.72
2023-04-02T00:29:13.337Z,365.36
2023-04-02T00:30:13.322Z,364.54
2023-04-02T00:31:13.318Z,356.20
2023-04-02T00:32:13.340Z,352.74
2023-04-02T00:33:13.305Z,357.37
2023-04-02T00:34:13.244Z,354.66
2023-04-02T00:35:13.237Z,355.04
2023-04-02T00:36:13.280Z,355.43
2023-04-02T00:37:13.206Z,355.43
2023-04-02T00:38:13.191Z,355.81
2023-04-02T00:39:13.181Z,353.12
2023-04-02T00:40:13.162Z,353.89
2023-04-02T00:41:13.155Z,359.33
2023-04-02T00:42:13.160Z,361.72
2023-04-02T00:43:13.137Z,364.14
2023-04-02T00:44:13.118Z,360.92
2023-04-02T00:45:13.126Z,356.59
2023-04-02T00:46:13.131Z,361.32
2023-04-02T00:47:13.073Z,360.52
2023-04-02T00:48:13.073Z,365.77
2023-04-02T00:49:13.051Z,367.41
2023-04-02T00:50:13.038Z,367.41
2023-04-02T00:51:13.026Z,365.36
2023-04-02T00:52:13.010Z,367.41
2023-04-02T00:53:13.007Z,365.77
2023-04-02T00:54:12.994Z,361.72
2023-04-02T00:55:12.985Z,365.77
2023-04-02T00:56:12.965Z,369.49
2023-04-02T00:57:12.983Z,371.59
2023-04-02T00:58:12.946Z,377.16
2023-04-02T00:59:12.925Z,375.86
2023-04-02T01:00:12.924Z,374.14
2023-04-02T01:01:12.953Z,373.71
2023-04-02T01:02:12.910Z,373.29
2023-04-02T01:03:13.032Z,376.73
2023-04-02T01:04:12.898Z,372.43
2023-04-02T01:05:12.851Z,376.73
2023-04-02T01:06:12.837Z,376.73
2023-04-02T01:07:12.828Z,373.29
2023-04-02T01:08:12.813Z,370.75
2023-04-02T01:09:12.809Z,373.71
2023-04-02T01:10:12.799Z,375.43
2023-04-02T01:11:12.789Z,374.57
2023-04-02T01:12:12.757Z,371.59
2023-04-02T01:13:12.756Z,369.91
2023-04-02T01:14:12.756Z,370.33
2023-04-02T01:15:12.718Z,370.75
2023-04-02T01:16:12.765Z,370.33
2023-04-02T01:17:12.694Z,373.29
2023-04-02T01:18:12.682Z,375.43
2023-04-02T01:19:12.679Z,372.43
2023-04-02T01:20:12.646Z,372.86
2023-04-02T01:21:12.647Z,369.49
2023-04-02T01:22:12.638Z,361.72
2023-04-02T01:23:12.635Z,358.55
2023-04-02T01:24:12.628Z,357.37
2023-04-02T01:25:12.598Z,358.55
2023-04-02T01:26:12.596Z,358.55
2023-04-02T01:27:12.562Z,362.52
2023-04-02T01:28:12.596Z,361.72
2023-04-02T01:29:12.550Z,366.18
2023-04-02T01:30:12.533Z,362.52
2023-04-02T01:31:12.616Z,361.72
2023-04-02T01:32:12.498Z,359.73
2023-04-02T01:33:12.496Z,360.13
2023-04-02T01:34:12.503Z,360.13
2023-04-02T01:35:12.468Z,359.33
2023-04-02T01:36:12.480Z,360.13
2023-04-02T01:37:12.440Z,362.92
2023-04-02T01:38:12.417Z,365.36
2023-04-02T01:39:12.430Z,362.92
2023-04-02T01:40:12.424Z,368.24
2023-04-02T01:41:12.391Z,367.41
2023-04-02T01:42:12.379Z,362.52
2023-04-02T01:43:12.368Z,362.12
2023-04-02T01:44:12.367Z,361.32
2023-04-02T01:45:12.387Z,364.95
2023-04-02T01:46:12.394Z,362.92
2023-04-02T01:47:12.307Z,361.72
2023-04-02T01:48:12.311Z,356.98
2023-04-02T01:49:12.276Z,356.98
2023-04-02T01:50:12.289Z,355.81
2023-04-02T01:51:12.254Z,351.98
2023-04-02T01:52:12.255Z,358.15
2023-04-02T01:53:12.223Z,351.23
2023-04-02T01:54:12.232Z,352.74
2023-04-02T01:55:12.227Z,350.47
2023-04-02T01:56:12.201Z,352.36
2023-04-02T01:57:12.179Z,350.47
2023-04-02T01:58:12.195Z,348.98
2023-04-02T01:59:12.194Z,346.02
2023-04-02T02:00:12.144Z,351.23
2023-04-02T02:01:12.195Z,348.23
2023-04-02T02:02:12.163Z,347.12
2023-04-02T02:03:12.184Z,347.86
2023-04-02T02:04:12.098Z,340.97
2023-04-02T02:05:12.092Z,338.85
2023-04-02T02:06:12.062Z,341.32
2023-04-02T02:07:12.044Z,339.90
2023-04-02T02:08:12.039Z,343.48
2023-04-02T02:09:12.024Z,344.93
2023-04-02T02:10:12.014Z,342.76
2023-04-02T02:11:12.002Z,349.35
2023-04-02T02:12:11.985Z,352.74
2023-04-02T02:13:11.988Z,352.74
2023-04-02T02:14:12.008Z,353.89
2023-04-02T02:15:11.971Z,356.20
2023-04-02T02:16:12.001Z,351.23
2023-04-02T02:17:11.932Z,350.47
2023-04-02T02:18:11.913Z,350.10
2023-04-02T02:19:11.902Z,353.12
2023-04-02T02:20:11.917Z,353.51
2023-04-02T02:21:11.902Z,355.81
2023-04-02T02:22:11.866Z,358.15
2023-04-02T02:23:11.853Z,356.20
2023-04-02T02:24:11.834Z,353.12
2023-04-02T02:25:11.817Z,356.20
2023-04-02T02:26:11.862Z,349.35
2023-04-02T02:27:11.815Z,352.36
2023-04-02T02:28:11.794Z,356.20
2023-04-02T02:29:11.799Z,354.66
2023-04-02T02:30:11.778Z,356.59
2023-04-02T02:31:11.752Z,357.37
2023-04-02T02:32:11.859Z,359.73
2023-04-02T02:33:11.714Z,360.13
2023-04-02T02:34:11.710Z,357.76
2023-04-02T02:35:11.726Z,355.04
2023-04-02T02:36:11.732Z,353.51
2023-04-02T02:37:11.667Z,353.12
2023-04-02T02:38:11.673Z,355.43
2023-04-02T02:39:11.640Z,355.81
2023-04-02T02:40:11.645Z,356.20
2023-04-02T02:41:11.678Z,355.43
2023-04-02T02:42:11.636Z,359.33
2023-04-02T02:43:11.601Z,360.92
2023-04-02T02:44:11.586Z,362.12
2023-04-02T02:45:11.567Z,363.73
2023-04-02T02:46:11.622Z,364.14
2023-04-02T02:47:11.549Z,364.54
2023-04-02T02:48:11.536Z,360.52
2023-04-02T02:49:11.514Z,364.95
2023-04-02T02:50:11.513Z,364.14
2023-04-02T02:51:14.530Z,367.00
2023-04-02T02:52:11.498Z,359.73
2023-04-02T02:53:11.469Z,359.33
2023-04-02T02:54:11.466Z,355.04
2023-04-02T02:55:11.441Z,357.37
2023-04-02T02:56:11.426Z,355.43
2023-04-02T02:57:11.462Z,356.20
2023-04-02T02:58:11.408Z,357.76
2023-04-02T02:59:11.401Z,356.20
2023-04-02T03:00:11.384Z,357.76
2023-04-02T03:01:11.373Z,357.76
2023-04-02T03:02:11.394Z,358.55
2023-04-02T03:03:11.404Z,359.33
2023-04-02T03:04:11.403Z,358.15
2023-04-02T03:05:11.303Z,358.55
2023-04-02T03:06:11.321Z,356.98
2023-04-02T03:07:11.290Z,355.81
2023-04-02T03:08:11.270Z,358.94
2023-04-02T03:09:11.273Z,355.04
2023-04-02T03:10:11.244Z,353.89
2023-04-02T03:11:11.242Z,353.12
2023-04-02T03:12:11.238Z,355.43
2023-04-02T03:13:11.214Z,354.66
2023-04-02T03:14:11.195Z,350.10
2023-04-02T03:15:11.180Z,353.12
2023-04-02T03:16:11.235Z,350.85
2023-04-02T03:17:11.158Z,347.12
2023-04-02T03:18:11.144Z,343.48
2023-04-02T03:19:11.143Z,339.20
2023-04-02T03:20:11.117Z,344.93
2023-04-02T03:21:11.120Z,350.10
2023-04-02T03:22:11.110Z,348.23
2023-04-02T03:23:11.079Z,346.02
2023-04-02T03:24:11.073Z,347.49
2023-04-02T03:25:11.079Z,346.76
2023-04-02T03:26:18.168Z,344.93
2023-04-02T03:27:11.030Z,347.12
2023-04-02T03:28:11.073Z,342.04
2023-04-02T03:29:11.037Z,339.55
2023-04-02T03:30:10.995Z,337.10
2023-04-02T03:31:10.998Z,342.04
2023-04-02T03:32:10.992Z,338.85
2023-04-02T03:33:10.974Z,342.76
2023-04-02T03:34:10.956Z,343.84
2023-04-02T03:35:10.932Z,342.04
2023-04-02T03:36:10.958Z,343.12
2023-04-02T03:37:10.906Z,344.56
2023-04-02T03:38:10.934Z,347.49
2023-04-02T03:39:10.890Z,347.86
2023-04-02T03:40:10.867Z,348.60
2023-04-02T03:41:10.860Z,347.49
2023-04-02T03:42:10.866Z,345.29
2023-04-02T03:43:10.837Z,348.23
2023-04-02T03:44:10.840Z,349.72
2023-04-02T03:45:10.802Z,348.60
2023-04-02T03:46:10.808Z,345.29
2023-04-02T03:47:10.773Z,345.29
2023-04-02T03:48:10.775Z,344.93
2023-04-02T03:49:10.754Z,343.48
2023-04-02T03:50:10.758Z,347.86
2023-04-02T03:51:10.728Z,343.48
2023-04-02T03:52:10.731Z,341.68
2023-04-02T03:53:10.765Z,341.32
2023-04-02T03:54:10.691Z,342.04
2023-04-02T03:55:10.673Z,344.20
2023-04-02T03:56:10.671Z,349.35
2023-04-02T03:57:10.687Z,351.60
2023-04-02T03:58:10.684Z,354.66
2023-04-02T03:59:10.625Z,358.55
2023-04-02T04:00:10.673Z,356.59
2023-04-02T04:01:10.619Z,359.33
2023-04-02T04:02:10.660Z,359.33
2023-04-02T04:03:11.401Z,362.12
2023-04-02T04:04:10.673Z,364.14
2023-04-02T04:05:10.550Z,359.73
2023-04-02T04:06:10.538Z,356.59
2023-04-02T04:07:10.523Z,353.89
2023-04-02T04:08:10.528Z,353.12
2023-04-02T04:09:10.504Z,352.36
2023-04-02T04:10:10.495Z,354.27
2023-04-02T04:11:10.560Z,353.12
2023-04-02T04:12:10.454Z,352.36
2023-04-02T04:13:10.454Z,355.04
2023-04-02T04:14:10.466Z,360.13
2023-04-02T04:15:10.431Z,354.66
2023-04-02T04:16:10.497Z,355.81
2023-04-02T04:17:10.385Z,353.89
2023-04-02T04:18:10.404Z,347.86
2023-04-02T04:19:10.394Z,342.40
2023-04-02T04:20:10.353Z,342.04
2023-04-02T04:21:10.344Z,338.85
2023-04-02T04:22:10.342Z,337.80
2023-04-02T04:23:10.331Z,343.48
2023-04-02T04:24:10.308Z,347.49
2023-04-02T04:25:10.301Z,346.39
2023-04-02T04:26:10.272Z,348.60
2023-04-02T04:27:10.258Z,347.86
2023-04-02T04:28:10.257Z,349.72
2023-04-02T04:29:10.293Z,352.74
2023-04-02T04:30:10.236Z,355.81
2023-04-02T04:31:10.219Z,349.72
2023-04-02T04:32:10.265Z,347.86
2023-04-02T04:33:10.222Z,347.86
2023-04-02T04:34:10.186Z,347.12
2023-04-02T04:35:10.150Z,343.84
2023-04-02T04:36:10.166Z,342.76
2023-04-02T04:37:10.123Z,343.84
2023-04-02T04:38:10.115Z,343.84
2023-04-02T04:39:10.137Z,342.76
2023-04-02T04:40:10.088Z,339.90
2023-04-02T04:41:10.087Z,339.90
2023-04-02T04:42:10.099Z,344.20
2023-04-02T04:43:10.049Z,335.37
2023-04-02T04:44:10.062Z,319.94
2023-04-02T04:45:10.041Z,320.89
2023-04-02T04:46:10.093Z,326.98
2023-04-02T04:47:10.013Z,324.71
2023-04-02T04:48:10.004Z,324.71
2023-04-02T04:49:10.024Z,328.30
2023-04-02T04:50:09.960Z,327.31
2023-04-02T04:51:09.963Z,329.62
2023-04-02T04:52:09.978Z,330.29
2023-04-02T04:53:09.925Z,326.98
2023-04-02T04:54:09.946Z,325.68
2023-04-02T04:55:09.904Z,326.33
2023-04-02T04:56:18.928Z,330.96
2023-04-02T04:57:09.976Z,330.29
2023-04-02T04:58:09.860Z,331.96
2023-04-02T04:59:09.860Z,334.00
2023-04-02T05:00:09.833Z,335.03
2023-04-02T05:01:09.855Z,335.03
2023-04-02T05:02:09.810Z,333.66
2023-04-02T05:03:09.794Z,325.36
2023-04-02T05:04:09.841Z,328.96
2023-04-02T05:05:09.761Z,329.62
2023-04-02T05:06:09.761Z,327.31
2023-04-02T05:07:09.753Z,328.63
2023-04-02T05:08:09.781Z,329.29
2023-04-02T05:09:09.706Z,331.63
2023-04-02T05:10:09.707Z,309.93
2023-04-02T05:11:09.713Z,311.11
2023-04-02T05:12:09.679Z,312.00
2023-04-02T05:13:09.659Z,315.31
2023-04-02T05:14:09.653Z,322.15
2023-04-02T05:15:09.635Z,327.97
2023-04-02T05:16:09.676Z,327.31
2023-04-02T05:17:09.639Z,322.79
2023-04-02T05:18:09.645Z,312.60
2023-04-02T05:19:09.582Z,313.20
2023-04-02T05:20:09.593Z,314.71
2023-04-02T05:21:09.575Z,315.62
2023-04-02T05:22:09.561Z,314.40
2023-04-02T05:23:09.547Z,318.39
2023-04-02T05:24:09.523Z,321.83
2023-04-02T05:25:09.511Z,324.71
2023-04-02T05:26:09.513Z,326.98
2023-04-02T05:27:09.477Z,319.63
2023-04-02T05:28:09.478Z,316.84
2023-04-02T05:29:09.449Z,321.20
2023-04-02T05:30:09.457Z,324.07
2023-04-02T05:31:09.440Z,321.83
2023-04-02T05:32:09.429Z,322.47
2023-04-02T05:33:09.464Z,325.03
2023-04-02T05:34:09.385Z,324.39
2023-04-02T05:35:09.395Z,322.79
2023-04-02T05:36:09.551Z,325.03
2023-04-02T05:37:09.367Z,321.83
2023-04-02T05:38:09.338Z,318.39
2023-04-02T05:39:09.331Z,321.20
2023-04-02T05:40:09.328Z,322.15
2023-04-02T05:41:09.325Z,317.77
2023-04-02T05:42:09.315Z,317.77
2023-04-02T05:43:09.317Z,314.40
2023-04-02T05:44:09.286Z,322.79
2023-04-02T05:45:09.266Z,319.32
2023-04-02T05:46:09.278Z,312.90
2023-04-02T05:47:09.256Z,314.40
2023-04-02T05:48:09.213Z,322.47
2023-04-02T05:49:09.195Z,323.11
2023-04-02T05:50:09.185Z,323.75
2023-04-02T05:51:09.195Z,321.20
2023-04-02T05:52:09.161Z,319.94
2023-04-02T05:53:09.157Z,321.83
2023-04-02T05:54:09.137Z,322.15
2023-04-02T05:55:09.144Z,322.47
2023-04-02T05:56:09.120Z,326.33
2023-04-02T05:57:09.188Z,324.07
2023-04-02T05:58:33.844Z,319.94
2023-04-02T05:59:09.101Z,313.20
2023-04-02T06:00:09.075Z,312.60
2023-04-02T06:01:09.052Z,312.00
2023-04-02T06:02:09.085Z,310.82
2023-04-02T06:03:09.183Z,313.20
2023-04-02T06:04:09.101Z,318.08
2023-04-02T06:05:08.990Z,320.26
2023-04-02T06:06:08.992Z,321.20
2023-04-02T06:07:08.973Z,325.68
2023-04-02T06:08:08.952Z,324.39
2023-04-02T06:09:08.956Z,323.11
2023-04-02T06:10:08.933Z,324.39
2023-04-02T06:11:08.921Z,324.71
2023-04-02T06:12:08.944Z,322.15
2023-04-02T06:13:08.915Z,314.40
2023-04-02T06:14:08.867Z,321.20
2023-04-02T06:15:08.874Z,326.33
2023-04-02T06:16:08.862Z,326.66
2023-04-02T06:17:08.838Z,327.31
2023-04-02T06:18:08.890Z,331.29
2023-04-02T06:19:08.816Z,330.29
2023-04-02T06:20:08.803Z,323.11
2023-04-02T06:21:08.797Z,322.79
2023-04-02T06:22:08.795Z,323.43
2023-04-02T06:23:08.774Z,326.98
2023-04-02T06:24:08.759Z,326.01
2023-04-02T06:25:08.747Z,328.63
2023-04-02T06:26:08.732Z,328.30
2023-04-02T06:27:08.734Z,323.11
2023-04-02T06:28:08.692Z,323.11
2023-04-02T06:29:08.683Z,322.79
2023-04-02T06:30:08.685Z,322.15
2023-04-02T06:31:08.732Z,324.71
2023-04-02T06:32:08.673Z,326.01
2023-04-02T06:33:08.685Z,329.95
2023-04-02T06:34:08.637Z,329.62
2023-04-02T06:35:08.613Z,326.98
2023-04-02T06:36:08.615Z,331.96
2023-04-02T06:37:08.598Z,329.29
2023-04-02T06:38:08.578Z,332.30
2023-04-02T06:39:08.555Z,333.32
2023-04-02T06:40:08.543Z,333.32
2023-04-02T06:41:08.553Z,332.64
2023-04-02T06:42:08.532Z,333.32
2023-04-02T06:43:08.522Z,332.64
2023-04-02T06:44:08.495Z,331.29
2023-04-02T06:45:08.495Z,332.64
2023-04-02T06:46:08.581Z,328.96
2023-04-02T06:47:08.480Z,327.97
2023-04-02T06:48:08.452Z,326.01
2023-04-02T06:49:08.429Z,321.20
2023-04-02T06:50:08.423Z,321.83
2023-04-02T06:51:08.407Z,321.52
2023-04-02T06:52:08.421Z,330.96
2023-04-02T06:53:08.378Z,335.03
2023-04-02T06:54:08.363Z,330.29
2023-04-02T06:55:08.942Z,325.03
2023-04-02T06:56:08.369Z,321.20
2023-04-02T06:57:08.403Z,320.89
2023-04-02T06:58:08.341Z,320.89
2023-04-02T06:59:08.305Z,324.39
2023-04-02T07:00:08.282Z,327.64
2023-04-02T07:01:08.343Z,329.62
2023-04-02T07:02:08.268Z,329.95
2023-04-02T07:03:08.297Z,331.29
2023-04-02T07:04:08.250Z,333.66
2023-04-02T07:05:08.391Z,339.55
2023-04-02T07:06:08.214Z,335.03
2023-04-02T07:07:08.193Z,332.98
2023-04-02T07:08:08.203Z,326.98
2023-04-02T07:09:08.167Z,318.39
2023-04-02T07:10:08.158Z,318.39
2023-04-02T07:11:08.169Z,316.54
2023-04-02T07:12:08.142Z,309.93
2023-04-02T07:13:08.133Z,297.52
2023-04-02T07:14:08.108Z,300.25
2023-04-02T07:15:08.104Z,304.17
2023-04-02T07:16:08.094Z,301.64
2023-04-02T07:17:08.083Z,311.11
2023-04-02T07:18:08.090Z,316.84
2023-04-02T07:19:08.050Z,318.70
2023-04-02T07:20:08.022Z,312.90
2023-04-02T07:21:08.040Z,315.62
2023-04-02T07:22:08.000Z,320.26
2023-04-02T07:23:08.008Z,315.92
2023-04-02T07:24:07.981Z,317.77
2023-04-02T07:25:07.979Z,313.20
2023-04-02T07:26:07.963Z,318.08
2023-04-02T07:27:07.953Z,309.64
2023-04-02T07:28:07.940Z,307.31
2023-04-02T07:29:07.935Z,315.01
2023-04-02T07:30:07.897Z,309.05
2023-04-02T07:31:07.933Z,308.18
2023-04-02T07:32:07.885Z,305.02
2023-04-02T07:33:07.920Z,306.73
2023-04-02T07:34:07.861Z,297.52
2023-04-02T07:35:07.854Z,299.70
2023-04-02T07:36:07.880Z,303.04
2023-04-02T07:37:07.817Z,303.88
2023-04-02T07:38:07.815Z,301.92
2023-04-02T07:39:07.795Z,308.47
2023-04-02T07:40:07.774Z,318.70
2023-04-02T07:41:07.767Z,323.43
2023-04-02T07:42:07.751Z,308.18
2023-04-02T07:43:07.730Z,300.81
2023-04-02T07:44:07.739Z,306.73
2023-04-02T07:45:07.712Z,306.16
2023-04-02T07:46:07.694Z,292.99
2023-04-02T07:47:07.746Z,289.10
2023-04-02T07:48:07.770Z,282.60
2023-04-02T07:49:07.661Z,281.14
2023-04-02T07:50:07.642Z,286.32
2023-04-02T07:51:07.632Z,275.46
2023-04-02T07:52:07.638Z,272.25
2023-04-02T07:53:07.607Z,274.30
2023-04-02T07:54:07.605Z,289.87
2023-04-02T07:55:07.592Z,296.17
2023-04-02T07:56:07.576Z,301.36
2023-04-02T07:57:07.569Z,304.45
2023-04-02T07:58:07.555Z,308.47
2023-04-02T07:59:07.539Z,310.82
2023-04-02T08:00:07.534Z,323.43
2023-04-02T08:01:07.514Z,333.66
2023-04-02T08:02:07.543Z,331.96
2023-04-02T08:03:07.585Z,325.68
2023-04-02T08:04:07.524Z,330.29
2023-04-02T08:05:07.500Z,330.62
2023-04-02T08:06:08.205Z,327.97
2023-04-02T08:07:07.452Z,321.52
2023-04-02T08:08:07.412Z,308.76
2023-04-02T08:09:07.434Z,312.00
2023-04-02T08:10:07.789Z,312.00
2023-04-02T08:11:07.409Z,314.40
2023-04-02T08:12:07.368Z,322.79
2023-04-02T08:13:07.396Z,323.43
2023-04-02T08:14:07.342Z,327.64
2023-04-02T08:15:07.350Z,332.98
2023-04-02T08:16:07.355Z,332.30
2023-04-02T08:17:07.314Z,324.07
2023-04-02T08:18:07.333Z,325.03
2023-04-02T08:19:08.878Z,313.50
2023-04-02T08:20:07.289Z,321.83
2023-04-02T08:21:07.257Z,325.03
2023-04-02T08:22:07.252Z,326.66
2023-04-02T08:23:07.235Z,317.15
2023-04-02T08:24:07.222Z,321.52
2023-04-02T08:25:07.203Z,308.18
2023-04-02T08:26:07.189Z,298.88
2023-04-02T08:27:07.178Z,298.61
2023-04-02T08:28:07.164Z,316.23
2023-04-02T08:29:07.188Z,318.39
2023-04-02T08:30:07.155Z,312.60
2023-04-02T08:31:07.154Z,322.15
2023-04-02T08:32:07.124Z,325.03
2023-04-02T08:33:07.164Z,334.68
2023-04-02T08:34:07.080Z,335.03
2023-04-02T08:35:07.126Z,347.12
2023-04-02T08:36:07.106Z,336.06
2023-04-02T08:37:07.050Z,340.61
2023-04-02T08:38:07.040Z,344.93
2023-04-02T08:39:07.031Z,328.30
2023-04-02T08:40:07.029Z,334.68
2023-04-02T08:41:07.005Z,345.29
2023-04-02T08:42:07.054Z,358.15
2023-04-02T08:43:06.973Z,365.36
2023-04-02T08:44:06.957Z,375.86
2023-04-02T08:45:22.981Z,384.23
2023-04-02T08:46:06.957Z,367.83
2023-04-02T08:47:06.938Z,375.43
2023-04-02T08:48:06.963Z,370.33
2023-04-02T08:49:06.898Z,368.24
2023-04-02T08:50:06.898Z,377.16
2023-04-02T08:51:06.866Z,383.57
2023-04-02T08:52:06.850Z,374.14
2023-04-02T08:53:06.854Z,383.34
2023-04-02T08:54:06.892Z,362.52
2023-04-02T08:55:06.830Z,356.20
2023-04-02T08:56:06.803Z,344.93
2023-04-02T08:57:06.855Z,339.90
2023-04-02T08:58:06.776Z,328.96
2023-04-02T08:59:06.797Z,348.60
2023-04-02T09:00:06.757Z,366.18
2023-04-02T09:01:06.737Z,371.59
2023-04-02T09:02:06.719Z,373.71
2023-04-02T09:03:06.780Z,356.98
2023-04-02T09:04:06.701Z,352.74
2023-04-02T09:05:06.797Z,355.81
2023-04-02T09:06:06.675Z,346.76
2023-04-02T09:07:06.675Z,358.94
2023-04-02T09:08:06.650Z,359.33
2023-04-02T09:09:06.639Z,368.65
2023-04-02T09:10:06.640Z,362.52
2023-04-02T09:11:06.617Z,355.81
2023-04-02T09:12:06.599Z,366.59
2023-04-02T09:13:06.598Z,374.14
2023-04-02T09:14:06.597Z,368.24
2023-04-02T09:15:06.572Z,376.73
2023-04-02T09:16:06.632Z,377.60
2023-04-02T09:17:06.539Z,372.43
2023-04-02T09:18:06.548Z,380.49
2023-04-02T09:19:06.514Z,394.26
2023-04-02T09:20:06.505Z,399.96
2023-04-02T09:21:06.484Z,402.63
2023-04-02T09:22:06.499Z,395.20
2023-04-02T09:23:06.456Z,404.34
2023-04-02T09:24:06.443Z,407.07
2023-04-02T09:25:06.462Z,418.35
2023-04-02T09:26:06.432Z,424.22
2023-04-02T09:27:06.436Z,399.96
2023-04-02T09:28:06.403Z,407.07
2023-04-02T09:29:06.384Z,406.82
2023-04-02T09:30:06.411Z,407.57
2023-04-02T09:31:07.347Z,425.04
2023-04-02T09:32:06.371Z,426.68
2023-04-02T09:33:06.510Z,435.34
2023-04-02T09:34:06.386Z,443.18
2023-04-02T09:35:14.980Z,436.77
2023-04-02T09:36:06.351Z,432.79
2023-04-02T09:37:06.311Z,421.53
2023-04-02T09:38:06.271Z,407.82
2023-04-02T09:39:06.341Z,412.89
2023-04-02T09:40:06.247Z,388.50
2023-04-02T09:41:06.252Z,391.48
2023-04-02T09:42:06.224Z,386.92
2023-04-02T09:43:06.214Z,388.27
2023-04-02T09:44:06.198Z,377.16
2023-04-02T09:45:06.186Z,388.73
2023-04-02T09:46:06.177Z,395.20
2023-04-02T09:47:06.254Z,398.52
2023-04-02T09:48:06.184Z,401.17
2023-04-02T09:49:06.146Z,420.46
2023-04-02T09:50:06.125Z,426.40
2023-04-02T09:51:06.118Z,426.95
2023-04-02T09:52:06.094Z,413.40
2023-04-02T09:53:06.081Z,404.10
2023-04-02T09:54:06.094Z,394.26
2023-04-02T09:55:06.059Z,399.24
2023-04-02T09:56:06.070Z,403.61
2023-04-02T09:57:06.066Z,398.28
2023-04-02T09:58:06.030Z,421.53
2023-04-02T09:59:06.044Z,442.89
2023-04-02T10:00:06.008Z,454.71
2023-04-02T10:01:06.016Z,440.25
2023-04-02T10:02:05.970Z,448.57
2023-04-02T10:03:05.959Z,436.77
2023-04-02T10:04:06.011Z,421.27
2023-04-02T10:05:05.917Z,448.57
2023-04-02T10:06:05.950Z,469.16
2023-04-02T10:07:05.930Z,480.01
2023-04-02T10:08:05.879Z,474.86
2023-04-02T10:09:05.870Z,464.89
2023-04-02T10:10:05.874Z,475.89
2023-04-02T10:11:05.846Z,452.24
2023-04-02T10:12:06.157Z,459.11
2023-04-02T10:13:05.833Z,472.16
2023-04-02T10:14:05.822Z,476.57
2023-04-02T10:15:05.791Z,488.48
2023-04-02T10:16:05.859Z,482.45
2023-04-02T10:17:05.826Z,482.80
2023-04-02T10:18:05.841Z,482.10
2023-04-02T10:19:05.743Z,488.48
2023-04-02T10:20:05.741Z,488.48
2023-04-02T10:21:05.731Z,485.98
2023-04-02T10:22:05.755Z,483.86
2023-04-02T10:23:06.571Z,486.69
2023-04-02T10:24:05.686Z,460.07
2023-04-02T10:25:05.659Z,465.22
2023-04-02T10:26:05.662Z,469.16
2023-04-02T10:27:05.657Z,475.89
2023-04-02T10:28:05.628Z,483.15
2023-04-02T10:29:06.973Z,484.21
2023-04-02T10:30:05.629Z,482.45
2023-04-02T10:31:05.603Z,481.75
2023-04-02T10:32:05.625Z,472.16
2023-04-02T10:33:05.678Z,457.85
2023-04-02T10:34:05.561Z,461.34
2023-04-02T10:35:05.559Z,479.32
2023-04-02T10:36:05.580Z,477.94
2023-04-02T10:37:05.558Z,471.83
2023-04-02T10:38:05.516Z,459.75
2023-04-02T10:39:05.510Z,471.16
2023-04-02T10:40:05.484Z,469.49
2023-04-02T10:41:05.461Z,469.16
2023-04-02T10:42:05.454Z,479.32
2023-04-02T10:43:05.454Z,488.48
2023-04-02T10:44:13.150Z,506.35
2023-04-02T10:45:05.424Z,502.52
2023-04-02T10:46:05.452Z,473.85
2023-04-02T10:47:05.439Z,453.16
2023-04-02T10:48:05.422Z,408.82
2023-04-02T10:49:05.407Z,408.82
2023-04-02T10:50:05.367Z,439.38
2023-04-02T10:51:05.385Z,474.52
2023-04-02T10:52:05.345Z,489.20
2023-04-02T10:53:05.325Z,509.85
2023-04-02T10:54:05.311Z,497.63
2023-04-02T10:55:05.331Z,492.10
2023-04-02T10:56:05.287Z,487.05
2023-04-02T10:57:05.294Z,479.66
2023-04-02T10:58:05.274Z,479.32
2023-04-02T10:59:05.244Z,449.79
2023-04-02T11:00:05.252Z,486.69
2023-04-02T11:01:05.233Z,499.50
2023-04-02T11:02:05.207Z,536.19
2023-04-02T11:03:05.252Z,546.78
2023-04-02T11:04:05.187Z,548.58
2023-04-02T11:05:05.184Z,549.95
2023-04-02T11:06:05.160Z,564.43
2023-04-02T11:07:13.665Z,581.22
2023-04-02T11:08:05.130Z,606.15
2023-04-02T11:09:05.138Z,597.42
2023-04-02T11:10:05.116Z,612.29
2023-04-02T11:11:05.097Z,622.62
2023-04-02T11:12:05.175Z,600.66
2023-04-02T11:13:05.080Z,619.72
2023-04-02T11:14:05.080Z,636.95
2023-04-02T11:15:05.048Z,643.74
2023-04-02T11:16:05.082Z,634.51
2023-04-02T11:17:05.036Z,641.25
2023-04-02T11:18:05.028Z,617.41
2023-04-02T11:19:05.012Z,630.90
2023-04-02T11:20:04.999Z,636.95
2023-04-02T11:21:04.991Z,626.73
2023-04-02T11:22:06.682Z,635.12
2023-04-02T11:23:04.957Z,624.38
2023-04-02T11:24:04.955Z,620.29
2023-04-02T11:25:04.930Z,622.04
2023-04-02T11:26:04.919Z,618.56
2023-04-02T11:27:04.916Z,596.89
2023-04-02T11:28:04.907Z,571.72
2023-04-02T11:29:04.894Z,592.63
2023-04-02T11:30:04.886Z,563.95
2023-04-02T11:31:04.851Z,552.23
2023-04-02T11:32:04.852Z,560.15
2023-04-02T11:33:04.875Z,557.80
2023-04-02T11:34:04.835Z,549.49
2023-04-02T11:35:06.996Z,542.31
2023-04-02T11:36:04.817Z,535.32
2023-04-02T11:37:04.785Z,556.86
2023-04-02T11:38:04.773Z,583.26
2023-04-02T11:39:16.503Z,599.04
2023-04-02T11:40:04.765Z,586.35
2023-04-02T11:41:04.738Z,564.43
2023-04-02T11:42:04.726Z,541.87
2023-04-02T11:43:04.701Z,481.05
2023-04-02T11:44:04.700Z,495.40
2023-04-02T11:45:04.691Z,516.19
2023-04-02T11:46:04.687Z,535.75
2023-04-02T11:47:04.654Z,540.55
2023-04-02T11:48:04.683Z,555.00
2023-04-02T11:49:04.633Z,566.36
2023-04-02T11:50:04.652Z,569.27
2023-04-02T11:51:04.627Z,577.68
2023-04-02T11:52:11.951Z,581.22
2023-04-02T11:53:04.592Z,571.22
2023-04-02T11:54:04.584Z,551.32
2023-04-02T11:55:04.570Z,547.23
2023-04-02T11:56:04.573Z,534.03
2023-04-02T11:57:04.575Z,540.55
2023-04-02T11:58:04.550Z,533.17
2023-04-02T11:59:04.518Z,527.25
2023-04-02T12:00:04.518Z,516.19
2023-04-02T12:01:04.492Z,508.29
2023-04-02T12:02:04.507Z,489.20
2023-04-02T12:03:04.543Z,485.98
2023-04-02T12:04:04.474Z,478.28
2023-04-02T12:05:04.626Z,472.50
2023-04-02T12:06:04.534Z,464.89
2023-04-02T12:07:04.417Z,461.66
2023-04-02T12:08:04.403Z,459.43
2023-04-02T12:09:04.414Z,395.20
2023-04-02T12:10:04.394Z,413.40
2023-04-02T12:11:04.366Z,433.36
2023-04-02T12:12:04.372Z,446.16
2023-04-02T12:13:04.342Z,441.71
2023-04-02T12:14:04.326Z,449.79
2023-04-02T12:15:04.332Z,456.90
2023-04-02T12:16:04.319Z,461.02
2023-04-02T12:17:05.380Z,448.57
2023-04-02T12:18:04.326Z,406.32
2023-04-02T12:19:04.279Z,404.34
2023-04-02T12:20:05.760Z,431.39
2023-04-02T12:21:04.240Z,443.48
2023-04-02T12:22:04.219Z,438.51
2023-04-02T12:23:04.210Z,439.67
2023-04-02T12:24:04.213Z,447.67
2023-04-02T12:25:04.198Z,463.27
2023-04-02T12:26:04.199Z,468.83
2023-04-02T12:27:04.181Z,436.77
2023-04-02T12:28:04.149Z,426.40